sensor_id;sensor_type;location;lat;lon;timestamp;P1;durP1;ratioP1;P2;durP2;ratioP2
14187;SDS011;7175;51.978;5.330;2022-08-24T00:01:53;62.00;;;58.40;;
14187;SDS011;7175;51.978;5.330;2022-08-24T00:04:21;64.30;;;60.60;;
14187;SDS011;7175;51.978;5.330;2022-08-24T00:06:50;64.93;;;61.23;;
14187;SDS011;7175;51.978;5.330;2022-08-24T00:09:18;67.83;;;64.00;;
14187;SDS011;7175;51.978;5.330;2022-08-24T00:11:46;69.07;;;65.17;;
14187;SDS011;7175;51.978;5.330;2022-08-24T00:14:14;68.57;;;64.77;;
14187;SDS011;7175;51.978;5.330;2022-08-24T00:16:43;66.37;;;62.67;;
14187;SDS011;7175;51.978;5.330;2022-08-24T00:19:11;66.50;;;62.70;;
14187;SDS011;7175;51.978;5.330;2022-08-24T00:21:39;64.47;;;60.77;;
14187;SDS011;7175;51.978;5.330;2022-08-24T00:24:07;63.40;;;59.80;;
14187;SDS011;7175;51.978;5.330;2022-08-24T00:26:36;64.13;;;60.43;;
14187;SDS011;7175;51.978;5.330;2022-08-24T00:29:05;67.73;;;63.63;;
14187;SDS011;7175;51.978;5.330;2022-08-24T00:31:33;67.50;;;63.70;;
14187;SDS011;7175;51.978;5.330;2022-08-24T00:34:03;66.93;;;63.13;;
14187;SDS011;7175;51.978;5.330;2022-08-24T00:36:32;70.53;;;66.43;;
14187;SDS011;7175;51.978;5.330;2022-08-24T00:39:00;69.57;;;65.57;;
14187;SDS011;7175;51.978;5.330;2022-08-24T00:41:30;67.33;;;63.50;;
14187;SDS011;7175;51.978;5.330;2022-08-24T00:43:58;67.73;;;63.83;;
14187;SDS011;7175;51.978;5.330;2022-08-24T00:46:33;70.77;;;66.77;;
14187;SDS011;7175;51.978;5.330;2022-08-24T00:49:11;70.97;;;66.97;;
14187;SDS011;7175;51.978;5.330;2022-08-24T00:51:48;72.27;;;68.00;;
14187;SDS011;7175;51.978;5.330;2022-08-24T00:54:22;75.60;;;71.40;;
14187;SDS011;7175;51.978;5.330;2022-08-24T00:56:53;73.87;;;69.77;;
14187;SDS011;7175;51.978;5.330;2022-08-24T00:59:27;73.90;;;69.70;;
14187;SDS011;7175;51.978;5.330;2022-08-24T01:02:00;74.77;;;70.13;;
14187;SDS011;7175;51.978;5.330;2022-08-24T01:04:44;74.30;;;70.20;;
14187;SDS011;7175;51.978;5.330;2022-08-24T01:07:28;75.20;;;71.00;;
14187;SDS011;7175;51.978;5.330;2022-08-24T01:09:57;77.00;;;72.70;;
14187;SDS011;7175;51.978;5.330;2022-08-24T01:12:29;78.77;;;74.37;;
14187;SDS011;7175;51.978;5.330;2022-08-24T01:14:59;79.93;;;75.43;;
14187;SDS011;7175;51.978;5.330;2022-08-24T01:17:30;83.97;;;79.27;;
14187;SDS011;7175;51.978;5.330;2022-08-24T01:20:17;84.50;;;79.77;;
14187;SDS011;7175;51.978;5.330;2022-08-24T01:22:50;84.57;;;79.87;;
14187;SDS011;7175;51.978;5.330;2022-08-24T01:25:25;85.70;;;80.90;;
14187;SDS011;7175;51.978;5.330;2022-08-24T01:27:58;88.07;;;83.17;;
14187;SDS011;7175;51.978;5.330;2022-08-24T01:30:31;87.97;;;83.17;;
14187;SDS011;7175;51.978;5.330;2022-08-24T01:33:03;87.30;;;82.50;;
14187;SDS011;7175;51.978;5.330;2022-08-24T01:35:33;86.20;;;81.50;;
14187;SDS011;7175;51.978;5.330;2022-08-24T01:38:05;85.57;;;80.87;;
14187;SDS011;7175;51.978;5.330;2022-08-24T01:40:39;85.23;;;80.57;;
14187;SDS011;7175;51.978;5.330;2022-08-24T01:43:10;84.47;;;79.87;;
14187;SDS011;7175;51.978;5.330;2022-08-24T01:45:40;86.90;;;82.10;;
14187;SDS011;7175;51.978;5.330;2022-08-24T01:48:09;89.07;;;84.07;;
14187;SDS011;7175;51.978;5.330;2022-08-24T01:50:37;90.77;;;85.57;;
14187;SDS011;7175;51.978;5.330;2022-08-24T01:53:06;92.93;;;87.83;;
14187;SDS011;7175;51.978;5.330;2022-08-24T01:55:34;91.87;;;86.67;;
14187;SDS011;7175;51.978;5.330;2022-08-24T01:58:04;94.10;;;88.77;;
14187;SDS011;7175;51.978;5.330;2022-08-24T02:00:32;96.73;;;91.27;;
14187;SDS011;7175;51.978;5.330;2022-08-24T02:03:02;95.80;;;90.40;;
14187;SDS011;7175;51.978;5.330;2022-08-24T02:05:31;94.43;;;89.10;;
14187;SDS011;7175;51.978;5.330;2022-08-24T02:07:59;96.07;;;90.57;;
14187;SDS011;7175;51.978;5.330;2022-08-24T02:10:28;96.33;;;90.73;;
14187;SDS011;7175;51.978;5.330;2022-08-24T02:12:57;95.83;;;90.43;;
14187;SDS011;7175;51.978;5.330;2022-08-24T02:15:29;96.53;;;91.13;;
14187;SDS011;7175;51.978;5.330;2022-08-24T02:17:58;96.10;;;90.70;;
14187;SDS011;7175;51.978;5.330;2022-08-24T02:20:27;96.37;;;90.87;;
14187;SDS011;7175;51.978;5.330;2022-08-24T02:22:55;94.53;;;89.13;;
14187;SDS011;7175;51.978;5.330;2022-08-24T02:25:24;95.73;;;90.23;;
14187;SDS011;7175;51.978;5.330;2022-08-24T02:27:55;95.07;;;89.67;;
14187;SDS011;7175;51.978;5.330;2022-08-24T02:30:23;96.00;;;90.50;;
14187;SDS011;7175;51.978;5.330;2022-08-24T02:32:53;95.80;;;90.30;;
14187;SDS011;7175;51.978;5.330;2022-08-24T02:35:22;97.30;;;91.80;;
14187;SDS011;7175;51.978;5.330;2022-08-24T02:37:50;95.67;;;90.17;;
14187;SDS011;7175;51.978;5.330;2022-08-24T02:40:18;95.13;;;89.67;;
14187;SDS011;7175;51.978;5.330;2022-08-24T02:42:47;96.90;;;91.30;;
14187;SDS011;7175;51.978;5.330;2022-08-24T02:45:15;97.27;;;91.67;;
14187;SDS011;7175;51.978;5.330;2022-08-24T02:47:43;96.33;;;90.73;;
14187;SDS011;7175;51.978;5.330;2022-08-24T02:50:13;97.87;;;92.27;;
14187;SDS011;7175;51.978;5.330;2022-08-24T02:52:43;97.17;;;91.57;;
14187;SDS011;7175;51.978;5.330;2022-08-24T02:55:12;97.80;;;92.00;;
14187;SDS011;7175;51.978;5.330;2022-08-24T02:57:45;99.80;;;94.20;;
14187;SDS011;7175;51.978;5.330;2022-08-24T03:00:15;99.73;;;94.13;;
14187;SDS011;7175;51.978;5.330;2022-08-24T03:02:48;99.67;;;93.90;;
14187;SDS011;7175;51.978;5.330;2022-08-24T03:05:17;100.13;;;93.93;;
14187;SDS011;7175;51.978;5.330;2022-08-24T03:07:46;100.40;;;94.30;;
14187;SDS011;7175;51.978;5.330;2022-08-24T03:10:17;102.50;;;96.40;;
14187;SDS011;7175;51.978;5.330;2022-08-24T03:12:46;102.03;;;95.93;;
14187;SDS011;7175;51.978;5.330;2022-08-24T03:15:15;101.90;;;95.90;;
14187;SDS011;7175;51.978;5.330;2022-08-24T03:17:47;101.73;;;95.73;;
14187;SDS011;7175;51.978;5.330;2022-08-24T03:20:18;105.50;;;99.30;;
14187;SDS011;7175;51.978;5.330;2022-08-24T03:22:47;102.63;;;96.73;;
14187;SDS011;7175;51.978;5.330;2022-08-24T03:25:16;95.07;;;89.67;;
14187;SDS011;7175;51.978;5.330;2022-08-24T03:27:46;84.17;;;79.27;;
14187;SDS011;7175;51.978;5.330;2022-08-24T03:30:15;77.40;;;73.00;;
14187;SDS011;7175;51.978;5.330;2022-08-24T03:32:44;71.50;;;67.40;;
14187;SDS011;7175;51.978;5.330;2022-08-24T03:35:13;72.60;;;68.37;;
14187;SDS011;7175;51.978;5.330;2022-08-24T03:37:43;70.67;;;66.57;;
14187;SDS011;7175;51.978;5.330;2022-08-24T03:40:12;70.50;;;66.50;;
14187;SDS011;7175;51.978;5.330;2022-08-24T03:42:50;73.13;;;69.03;;
14187;SDS011;7175;51.978;5.330;2022-08-24T03:45:18;75.60;;;71.30;;
14187;SDS011;7175;51.978;5.330;2022-08-24T03:47:47;74.80;;;70.60;;
14187;SDS011;7175;51.978;5.330;2022-08-24T03:50:15;75.40;;;71.00;;
14187;SDS011;7175;51.978;5.330;2022-08-24T03:52:44;79.87;;;75.27;;
14187;SDS011;7175;51.978;5.330;2022-08-24T03:55:13;78.77;;;74.37;;
14187;SDS011;7175;51.978;5.330;2022-08-24T03:57:41;80.57;;;75.97;;
14187;SDS011;7175;51.978;5.330;2022-08-24T04:00:10;79.10;;;74.70;;
14187;SDS011;7175;51.978;5.330;2022-08-24T04:02:39;81.87;;;77.27;;
14187;SDS011;7175;51.978;5.330;2022-08-24T04:05:07;82.30;;;77.70;;
14187;SDS011;7175;51.978;5.330;2022-08-24T04:07:36;86.00;;;81.20;;
14187;SDS011;7175;51.978;5.330;2022-08-24T04:10:05;86.47;;;81.57;;
14187;SDS011;7175;51.978;5.330;2022-08-24T04:12:34;86.00;;;81.10;;
14187;SDS011;7175;51.978;5.330;2022-08-24T04:15:02;88.60;;;83.70;;
14187;SDS011;7175;51.978;5.330;2022-08-24T04:17:31;90.20;;;85.20;;
14187;SDS011;7175;51.978;5.330;2022-08-24T04:19:59;93.20;;;87.93;;
14187;SDS011;7175;51.978;5.330;2022-08-24T04:22:28;91.30;;;86.20;;
14187;SDS011;7175;51.978;5.330;2022-08-24T04:24:59;93.80;;;88.70;;
14187;SDS011;7175;51.978;5.330;2022-08-24T04:27:35;95.30;;;90.00;;
14187;SDS011;7175;51.978;5.330;2022-08-24T04:30:04;96.47;;;91.07;;
14187;SDS011;7175;51.978;5.330;2022-08-24T04:32:32;98.43;;;92.93;;
14187;SDS011;7175;51.978;5.330;2022-08-24T04:35:01;100.37;;;94.77;;
14187;SDS011;7175;51.978;5.330;2022-08-24T04:37:29;99.40;;;93.83;;
14187;SDS011;7175;51.978;5.330;2022-08-24T04:39:57;100.43;;;94.83;;
14187;SDS011;7175;51.978;5.330;2022-08-24T04:42:26;104.40;;;98.60;;
14187;SDS011;7175;51.978;5.330;2022-08-24T04:45:00;102.67;;;97.00;;
14187;SDS011;7175;51.978;5.330;2022-08-24T04:47:28;104.43;;;98.70;;
14187;SDS011;7175;51.978;5.330;2022-08-24T04:49:56;105.37;;;99.57;;
14187;SDS011;7175;51.978;5.330;2022-08-24T04:55:19;103.07;;;97.07;;
14187;SDS011;7175;51.978;5.330;2022-08-24T04:58:01;104.50;;;98.60;;
14187;SDS011;7175;51.978;5.330;2022-08-24T05:00:45;101.27;;;95.40;;
14187;SDS011;7175;51.978;5.330;2022-08-24T05:03:14;102.10;;;96.17;;
14187;SDS011;7175;51.978;5.330;2022-08-24T05:05:54;104.60;;;98.60;;
14187;SDS011;7175;51.978;5.330;2022-08-24T05:08:22;102.00;;;96.00;;
14187;SDS011;7175;51.978;5.330;2022-08-24T05:10:52;103.00;;;97.07;;
14187;SDS011;7175;51.978;5.330;2022-08-24T05:13:20;102.10;;;96.20;;
14187;SDS011;7175;51.978;5.330;2022-08-24T05:15:50;101.03;;;94.83;;
14187;SDS011;7175;51.978;5.330;2022-08-24T05:18:18;99.33;;;93.43;;
14187;SDS011;7175;51.978;5.330;2022-08-24T05:20:47;101.20;;;95.20;;
14187;SDS011;7175;51.978;5.330;2022-08-24T05:23:18;101.30;;;95.30;;
14187;SDS011;7175;51.978;5.330;2022-08-24T05:25:47;100.53;;;94.47;;
14187;SDS011;7175;51.978;5.330;2022-08-24T05:28:16;99.73;;;93.70;;
14187;SDS011;7175;51.978;5.330;2022-08-24T05:30:46;100.33;;;94.33;;
14187;SDS011;7175;51.978;5.330;2022-08-24T05:33:20;99.70;;;93.60;;
14187;SDS011;7175;51.978;5.330;2022-08-24T05:35:52;98.77;;;92.60;;
14187;SDS011;7175;51.978;5.330;2022-08-24T05:41:25;106.20;;;99.40;;
14187;SDS011;7175;51.978;5.330;2022-08-24T05:43:56;103.67;;;97.27;;
14187;SDS011;7175;51.978;5.330;2022-08-24T05:49:37;104.93;;;98.53;;
14187;SDS011;7175;51.978;5.330;2022-08-24T05:52:14;105.03;;;98.53;;
14187;SDS011;7175;51.978;5.330;2022-08-24T05:57:30;105.70;;;99.10;;
14187;SDS011;7175;51.978;5.330;2022-08-24T06:06:28;105.80;;;99.27;;
14187;SDS011;7175;51.978;5.330;2022-08-24T06:09:14;105.93;;;99.43;;
14187;SDS011;7175;51.978;5.330;2022-08-24T06:11:45;105.50;;;99.10;;
14187;SDS011;7175;51.978;5.330;2022-08-24T06:17:33;103.07;;;96.87;;
14187;SDS011;7175;51.978;5.330;2022-08-24T06:20:08;102.63;;;96.53;;
14187;SDS011;7175;51.978;5.330;2022-08-24T06:22:44;100.93;;;94.70;;
14187;SDS011;7175;51.978;5.330;2022-08-24T06:25:18;98.23;;;92.37;;
14187;SDS011;7175;51.978;5.330;2022-08-24T06:28:12;93.67;;;88.00;;
14187;SDS011;7175;51.978;5.330;2022-08-24T06:33:45;79.30;;;74.50;;
14187;SDS011;7175;51.978;5.330;2022-08-24T06:36:14;73.63;;;69.13;;
14187;SDS011;7175;51.978;5.330;2022-08-24T06:38:49;60.33;;;56.43;;
14187;SDS011;7175;51.978;5.330;2022-08-24T06:41:17;54.80;;;51.20;;
14187;SDS011;7175;51.978;5.330;2022-08-24T06:43:45;47.87;;;44.73;;
14187;SDS011;7175;51.978;5.330;2022-08-24T06:46:15;42.80;;;39.80;;
14187;SDS011;7175;51.978;5.330;2022-08-24T06:48:50;39.20;;;36.40;;
14187;SDS011;7175;51.978;5.330;2022-08-24T06:51:21;35.90;;;33.30;;
14187;SDS011;7175;51.978;5.330;2022-08-24T06:53:58;33.40;;;30.70;;
14187;SDS011;7175;51.978;5.330;2022-08-24T06:56:34;31.83;;;29.53;;
14187;SDS011;7175;51.978;5.330;2022-08-24T06:59:03;30.73;;;28.47;;
14187;SDS011;7175;51.978;5.330;2022-08-24T07:01:40;29.87;;;27.57;;
14187;SDS011;7175;51.978;5.330;2022-08-24T07:04:24;29.33;;;27.03;;
14187;SDS011;7175;51.978;5.330;2022-08-24T07:06:53;30.03;;;27.73;;
14187;SDS011;7175;51.978;5.330;2022-08-24T07:09:23;28.70;;;26.40;;
14187;SDS011;7175;51.978;5.330;2022-08-24T07:11:52;28.30;;;26.10;;
14187;SDS011;7175;51.978;5.330;2022-08-24T07:14:20;27.57;;;25.47;;
14187;SDS011;7175;51.978;5.330;2022-08-24T07:16:48;26.90;;;24.70;;
14187;SDS011;7175;51.978;5.330;2022-08-24T07:19:16;26.70;;;24.60;;
14187;SDS011;7175;51.978;5.330;2022-08-24T07:21:44;26.77;;;24.67;;
14187;SDS011;7175;51.978;5.330;2022-08-24T07:24:12;25.77;;;23.67;;
14187;SDS011;7175;51.978;5.330;2022-08-24T07:26:42;24.37;;;22.37;;
14187;SDS011;7175;51.978;5.330;2022-08-24T07:29:10;24.73;;;22.73;;
14187;SDS011;7175;51.978;5.330;2022-08-24T07:32:00;22.40;;;20.57;;
14187;SDS011;7175;51.978;5.330;2022-08-24T07:34:28;21.80;;;20.00;;
14187;SDS011;7175;51.978;5.330;2022-08-24T07:36:56;22.50;;;20.60;;
14187;SDS011;7175;51.978;5.330;2022-08-24T07:39:25;21.73;;;19.93;;
14187;SDS011;7175;51.978;5.330;2022-08-24T07:41:55;21.13;;;19.43;;
14187;SDS011;7175;51.978;5.330;2022-08-24T07:44:43;21.67;;;19.87;;
14187;SDS011;7175;51.978;5.330;2022-08-24T07:47:11;22.27;;;20.37;;
14187;SDS011;7175;51.978;5.330;2022-08-24T07:49:59;23.03;;;21.00;;
14187;SDS011;7175;51.978;5.330;2022-08-24T07:52:27;22.47;;;20.57;;
14187;SDS011;7175;51.978;5.330;2022-08-24T07:54:56;22.07;;;20.23;;
14187;SDS011;7175;51.978;5.330;2022-08-24T07:57:26;21.47;;;19.67;;
14187;SDS011;7175;51.978;5.330;2022-08-24T07:59:54;21.50;;;19.70;;
14187;SDS011;7175;51.978;5.330;2022-08-24T08:02:22;22.43;;;20.53;;
14187;SDS011;7175;51.978;5.330;2022-08-24T08:05:01;21.73;;;19.80;;
14187;SDS011;7175;51.978;5.330;2022-08-24T08:07:29;20.73;;;18.97;;
14187;SDS011;7175;51.978;5.330;2022-08-24T08:09:57;22.33;;;20.23;;
14187;SDS011;7175;51.978;5.330;2022-08-24T08:12:28;20.63;;;18.93;;
14187;SDS011;7175;51.978;5.330;2022-08-24T08:14:56;20.97;;;19.17;;
14187;SDS011;7175;51.978;5.330;2022-08-24T08:17:24;21.80;;;19.90;;
14187;SDS011;7175;51.978;5.330;2022-08-24T08:19:52;21.33;;;19.53;;
14187;SDS011;7175;51.978;5.330;2022-08-24T08:22:20;21.50;;;19.70;;
14187;SDS011;7175;51.978;5.330;2022-08-24T08:25:06;22.07;;;20.13;;
14187;SDS011;7175;51.978;5.330;2022-08-24T08:27:36;21.13;;;19.33;;
14187;SDS011;7175;51.978;5.330;2022-08-24T08:30:04;22.37;;;20.20;;
14187;SDS011;7175;51.978;5.330;2022-08-24T08:32:33;21.77;;;19.93;;
14187;SDS011;7175;51.978;5.330;2022-08-24T08:35:03;21.70;;;19.90;;
14187;SDS011;7175;51.978;5.330;2022-08-24T08:37:32;21.53;;;19.63;;
14187;SDS011;7175;51.978;5.330;2022-08-24T08:40:06;21.07;;;19.27;;
14187;SDS011;7175;51.978;5.330;2022-08-24T08:42:42;21.33;;;19.53;;
14187;SDS011;7175;51.978;5.330;2022-08-24T08:45:26;21.27;;;19.37;;
14187;SDS011;7175;51.978;5.330;2022-08-24T08:54:09;21.20;;;19.40;;
14187;SDS011;7175;51.978;5.330;2022-08-24T08:56:43;20.50;;;18.80;;
14187;SDS011;7175;51.978;5.330;2022-08-24T08:59:31;20.23;;;18.53;;
14187;SDS011;7175;51.978;5.330;2022-08-24T09:02:12;20.27;;;18.57;;
14187;SDS011;7175;51.978;5.330;2022-08-24T09:04:58;20.57;;;18.87;;
14187;SDS011;7175;51.978;5.330;2022-08-24T09:07:45;20.27;;;18.57;;
14187;SDS011;7175;51.978;5.330;2022-08-24T09:10:30;20.50;;;18.80;;
14187;SDS011;7175;51.978;5.330;2022-08-24T09:13:14;19.93;;;18.23;;
14187;SDS011;7175;51.978;5.330;2022-08-24T09:16:04;20.27;;;18.37;;
14187;SDS011;7175;51.978;5.330;2022-08-24T09:18:45;20.93;;;19.13;;
14187;SDS011;7175;51.978;5.330;2022-08-24T09:21:33;20.63;;;18.83;;
14187;SDS011;7175;51.978;5.330;2022-08-24T09:24:20;21.10;;;19.20;;
14187;SDS011;7175;51.978;5.330;2022-08-24T09:27:01;21.10;;;19.30;;
14187;SDS011;7175;51.978;5.330;2022-08-24T09:29:45;20.43;;;18.73;;
14187;SDS011;7175;51.978;5.330;2022-08-24T09:32:36;20.37;;;18.67;;
14187;SDS011;7175;51.978;5.330;2022-08-24T09:35:25;20.50;;;18.70;;
14187;SDS011;7175;51.978;5.330;2022-08-24T09:38:00;20.53;;;18.73;;
14187;SDS011;7175;51.978;5.330;2022-08-24T09:40:41;20.13;;;18.43;;
14187;SDS011;7175;51.978;5.330;2022-08-24T09:43:31;21.23;;;19.00;;
14187;SDS011;7175;51.978;5.330;2022-08-24T09:46:35;19.87;;;18.17;;
14187;SDS011;7175;51.978;5.330;2022-08-24T09:49:35;20.40;;;18.60;;
14187;SDS011;7175;51.978;5.330;2022-08-24T09:55:30;20.50;;;18.80;;
14187;SDS011;7175;51.978;5.330;2022-08-24T09:58:15;20.30;;;18.60;;
14187;SDS011;7175;51.978;5.330;2022-08-24T10:00:52;21.30;;;19.50;;
14187;SDS011;7175;51.978;5.330;2022-08-24T10:03:37;21.27;;;19.47;;
14187;SDS011;7175;51.978;5.330;2022-08-24T10:06:22;20.70;;;19.00;;
14187;SDS011;7175;51.978;5.330;2022-08-24T10:11:54;19.53;;;17.93;;
14187;SDS011;7175;51.978;5.330;2022-08-24T10:14:35;19.77;;;18.17;;
14187;SDS011;7175;51.978;5.330;2022-08-24T10:17:13;19.17;;;17.67;;
14187;SDS011;7175;51.978;5.330;2022-08-24T10:19:53;19.23;;;17.73;;
14187;SDS011;7175;51.978;5.330;2022-08-24T10:22:37;19.23;;;17.63;;
14187;SDS011;7175;51.978;5.330;2022-08-24T10:25:31;19.37;;;17.77;;
14187;SDS011;7175;51.978;5.330;2022-08-24T10:28:09;19.17;;;17.60;;
14187;SDS011;7175;51.978;5.330;2022-08-24T10:31:00;18.73;;;17.13;;
14187;SDS011;7175;51.978;5.330;2022-08-24T10:33:34;19.63;;;18.03;;
14187;SDS011;7175;51.978;5.330;2022-08-24T10:36:25;19.70;;;18.10;;
14187;SDS011;7175;51.978;5.330;2022-08-24T10:39:29;19.70;;;18.00;;
14187;SDS011;7175;51.978;5.330;2022-08-24T10:45:39;19.07;;;17.47;;
14187;SDS011;7175;51.978;5.330;2022-08-24T10:48:31;19.80;;;18.10;;
14187;SDS011;7175;51.978;5.330;2022-08-24T10:51:24;20.63;;;18.83;;
14187;SDS011;7175;51.978;5.330;2022-08-24T10:54:02;19.10;;;17.50;;
14187;SDS011;7175;51.978;5.330;2022-08-24T10:56:35;20.87;;;19.07;;
14187;SDS011;7175;51.978;5.330;2022-08-24T10:59:13;20.10;;;18.40;;
14187;SDS011;7175;51.978;5.330;2022-08-24T11:01:59;18.90;;;17.30;;
14187;SDS011;7175;51.978;5.330;2022-08-24T11:04:38;18.80;;;17.20;;
14187;SDS011;7175;51.978;5.330;2022-08-24T11:07:14;19.27;;;17.63;;
14187;SDS011;7175;51.978;5.330;2022-08-24T11:09:49;19.67;;;17.97;;
14187;SDS011;7175;51.978;5.330;2022-08-24T11:12:24;20.40;;;18.70;;
14187;SDS011;7175;51.978;5.330;2022-08-24T11:14:56;18.70;;;17.10;;
14187;SDS011;7175;51.978;5.330;2022-08-24T11:17:28;20.20;;;18.60;;
14187;SDS011;7175;51.978;5.330;2022-08-24T11:19:57;19.10;;;17.50;;
14187;SDS011;7175;51.978;5.330;2022-08-24T11:22:27;19.17;;;17.60;;
14187;SDS011;7175;51.978;5.330;2022-08-24T11:25:03;19.47;;;17.87;;
14187;SDS011;7175;51.978;5.330;2022-08-24T11:27:38;19.40;;;17.80;;
14187;SDS011;7175;51.978;5.330;2022-08-24T11:30:11;19.13;;;17.53;;
14187;SDS011;7175;51.978;5.330;2022-08-24T11:32:43;20.80;;;19.10;;
14187;SDS011;7175;51.978;5.330;2022-08-24T11:35:16;19.90;;;18.30;;
14187;SDS011;7175;51.978;5.330;2022-08-24T11:37:47;19.13;;;17.53;;
14187;SDS011;7175;51.978;5.330;2022-08-24T11:40:18;19.40;;;17.70;;
14187;SDS011;7175;51.978;5.330;2022-08-24T11:45:52;18.17;;;16.67;;
14187;SDS011;7175;51.978;5.330;2022-08-24T11:48:32;18.90;;;17.30;;
14187;SDS011;7175;51.978;5.330;2022-08-24T11:51:10;18.97;;;17.37;;
14187;SDS011;7175;51.978;5.330;2022-08-24T11:53:57;20.00;;;18.30;;
14187;SDS011;7175;51.978;5.330;2022-08-24T11:56:32;18.47;;;16.97;;
14187;SDS011;7175;51.978;5.330;2022-08-24T11:59:09;19.13;;;17.53;;
14187;SDS011;7175;51.978;5.330;2022-08-24T12:01:51;18.87;;;17.27;;
14187;SDS011;7175;51.978;5.330;2022-08-24T12:04:35;18.30;;;16.80;;
14187;SDS011;7175;51.978;5.330;2022-08-24T12:07:14;18.13;;;16.63;;
14187;SDS011;7175;51.978;5.330;2022-08-24T12:09:57;18.37;;;16.87;;
14187;SDS011;7175;51.978;5.330;2022-08-24T12:12:39;17.93;;;16.43;;
14187;SDS011;7175;51.978;5.330;2022-08-24T12:15:15;18.90;;;17.20;;
14187;SDS011;7175;51.978;5.330;2022-08-24T12:17:50;18.50;;;16.90;;
14187;SDS011;7175;51.978;5.330;2022-08-24T12:20:25;18.70;;;17.00;;
14187;SDS011;7175;51.978;5.330;2022-08-24T12:22:58;19.20;;;17.50;;
14187;SDS011;7175;51.978;5.330;2022-08-24T12:25:32;18.43;;;16.83;;
14187;SDS011;7175;51.978;5.330;2022-08-24T12:28:20;18.70;;;17.10;;
14187;SDS011;7175;51.978;5.330;2022-08-24T12:31:05;18.83;;;17.23;;
14187;SDS011;7175;51.978;5.330;2022-08-24T12:33:37;19.03;;;17.37;;
14187;SDS011;7175;51.978;5.330;2022-08-24T12:36:14;18.70;;;17.10;;
14187;SDS011;7175;51.978;5.330;2022-08-24T12:38:48;18.87;;;17.27;;
14187;SDS011;7175;51.978;5.330;2022-08-24T12:41:29;18.73;;;17.13;;
14187;SDS011;7175;51.978;5.330;2022-08-24T12:44:01;18.70;;;17.10;;
14187;SDS011;7175;51.978;5.330;2022-08-24T12:46:36;19.00;;;17.40;;
14187;SDS011;7175;51.978;5.330;2022-08-24T12:49:06;20.10;;;18.10;;
14187;SDS011;7175;51.978;5.330;2022-08-24T12:51:45;19.03;;;17.43;;
14187;SDS011;7175;51.978;5.330;2022-08-24T12:54:41;19.80;;;18.10;;
14187;SDS011;7175;51.978;5.330;2022-08-24T12:57:26;19.50;;;17.90;;
14187;SDS011;7175;51.978;5.330;2022-08-24T13:00:06;19.30;;;17.70;;
14187;SDS011;7175;51.978;5.330;2022-08-24T13:02:41;18.90;;;17.30;;
14187;SDS011;7175;51.978;5.330;2022-08-24T13:05:15;18.67;;;17.07;;
14187;SDS011;7175;51.978;5.330;2022-08-24T13:07:46;18.73;;;17.13;;
14187;SDS011;7175;51.978;5.330;2022-08-24T13:13:13;18.97;;;17.37;;
14187;SDS011;7175;51.978;5.330;2022-08-24T13:15:51;18.63;;;17.03;;
14187;SDS011;7175;51.978;5.330;2022-08-24T13:21:34;18.43;;;16.87;;
14187;SDS011;7175;51.978;5.330;2022-08-24T13:30:22;18.70;;;17.10;;
14187;SDS011;7175;51.978;5.330;2022-08-24T13:33:01;18.23;;;16.73;;
14187;SDS011;7175;51.978;5.330;2022-08-24T13:35:35;18.63;;;17.03;;
14187;SDS011;7175;51.978;5.330;2022-08-24T13:38:40;19.00;;;17.40;;
14187;SDS011;7175;51.978;5.330;2022-08-24T13:41:48;18.53;;;16.93;;
14187;SDS011;7175;51.978;5.330;2022-08-24T13:44:28;18.80;;;17.20;;
14187;SDS011;7175;51.978;5.330;2022-08-24T13:47:15;18.60;;;17.00;;
14187;SDS011;7175;51.978;5.330;2022-08-24T13:52:31;21.43;;;16.77;;
14187;SDS011;7175;51.978;5.330;2022-08-24T13:55:13;18.30;;;16.70;;
14187;SDS011;7175;51.978;5.330;2022-08-24T13:58:05;17.83;;;16.33;;
14187;SDS011;7175;51.978;5.330;2022-08-24T14:00:44;17.67;;;16.17;;
14187;SDS011;7175;51.978;5.330;2022-08-24T14:06:19;18.13;;;16.53;;
14187;SDS011;7175;51.978;5.330;2022-08-24T14:09:00;18.17;;;16.67;;
14187;SDS011;7175;51.978;5.330;2022-08-24T14:14:51;18.20;;;16.70;;
14187;SDS011;7175;51.978;5.330;2022-08-24T14:17:29;17.70;;;16.30;;
14187;SDS011;7175;51.978;5.330;2022-08-24T14:23:22;17.37;;;15.97;;
14187;SDS011;7175;51.978;5.330;2022-08-24T14:35:29;18.10;;;16.60;;
14187;SDS011;7175;51.978;5.330;2022-08-24T14:38:10;17.80;;;16.30;;
14187;SDS011;7175;51.978;5.330;2022-08-24T14:40:53;18.60;;;16.80;;
14187;SDS011;7175;51.978;5.330;2022-08-24T14:43:30;18.00;;;16.50;;
14187;SDS011;7175;51.978;5.330;2022-08-24T14:46:15;18.17;;;16.63;;
14187;SDS011;7175;51.978;5.330;2022-08-24T14:49:05;18.00;;;16.50;;
14187;SDS011;7175;51.978;5.330;2022-08-24T14:51:57;17.80;;;16.40;;
14187;SDS011;7175;51.978;5.330;2022-08-24T14:54:35;18.10;;;16.60;;
14187;SDS011;7175;51.978;5.330;2022-08-24T15:00:07;17.93;;;16.43;;
14187;SDS011;7175;51.978;5.330;2022-08-24T15:05:39;18.30;;;16.80;;
14187;SDS011;7175;51.978;5.330;2022-08-24T15:08:35;18.27;;;16.77;;
14187;SDS011;7175;51.978;5.330;2022-08-24T15:11:09;18.60;;;17.00;;
14187;SDS011;7175;51.978;5.330;2022-08-24T15:13:42;18.00;;;16.50;;
14187;SDS011;7175;51.978;5.330;2022-08-24T15:16:14;18.80;;;17.17;;
14187;SDS011;7175;51.978;5.330;2022-08-24T15:18:48;18.20;;;16.60;;
14187;SDS011;7175;51.978;5.330;2022-08-24T15:21:29;17.90;;;16.40;;
14187;SDS011;7175;51.978;5.330;2022-08-24T15:24:13;18.60;;;17.00;;
14187;SDS011;7175;51.978;5.330;2022-08-24T15:26:57;18.40;;;16.80;;
14187;SDS011;7175;51.978;5.330;2022-08-24T15:29:33;18.80;;;17.20;;
14187;SDS011;7175;51.978;5.330;2022-08-24T15:32:12;18.77;;;17.17;;
14187;SDS011;7175;51.978;5.330;2022-08-24T15:34:42;18.20;;;16.70;;
14187;SDS011;7175;51.978;5.330;2022-08-24T15:37:14;18.30;;;16.80;;
14187;SDS011;7175;51.978;5.330;2022-08-24T15:39:52;18.83;;;17.23;;
14187;SDS011;7175;51.978;5.330;2022-08-24T15:42:21;18.10;;;16.60;;
14187;SDS011;7175;51.978;5.330;2022-08-24T15:44:49;18.10;;;16.60;;
14187;SDS011;7175;51.978;5.330;2022-08-24T15:47:19;19.33;;;17.63;;
14187;SDS011;7175;51.978;5.330;2022-08-24T15:49:52;18.10;;;16.60;;
14187;SDS011;7175;51.978;5.330;2022-08-24T15:55:25;18.30;;;16.80;;
14187;SDS011;7175;51.978;5.330;2022-08-24T15:57:57;18.13;;;16.63;;
14187;SDS011;7175;51.978;5.330;2022-08-24T16:00:38;18.07;;;16.57;;
14187;SDS011;7175;51.978;5.330;2022-08-24T16:03:25;18.37;;;16.87;;
14187;SDS011;7175;51.978;5.330;2022-08-24T16:06:15;18.40;;;16.90;;
14187;SDS011;7175;51.978;5.330;2022-08-24T16:08:52;18.77;;;17.23;;
14187;SDS011;7175;51.978;5.330;2022-08-24T16:11:27;18.07;;;16.57;;
14187;SDS011;7175;51.978;5.330;2022-08-24T16:13:58;18.23;;;16.73;;
14187;SDS011;7175;51.978;5.330;2022-08-24T16:16:30;18.30;;;16.80;;
14187;SDS011;7175;51.978;5.330;2022-08-24T16:19:01;18.20;;;16.77;;
14187;SDS011;7175;51.978;5.330;2022-08-24T16:21:35;18.07;;;16.57;;
14187;SDS011;7175;51.978;5.330;2022-08-24T16:24:07;18.63;;;17.13;;
14187;SDS011;7175;51.978;5.330;2022-08-24T16:26:51;17.93;;;16.50;;
14187;SDS011;7175;51.978;5.330;2022-08-24T16:32:16;19.33;;;17.73;;
14187;SDS011;7175;51.978;5.330;2022-08-24T16:34:52;17.80;;;16.40;;
14187;SDS011;7175;51.978;5.330;2022-08-24T16:37:22;18.30;;;16.80;;
14187;SDS011;7175;51.978;5.330;2022-08-24T16:39:51;18.07;;;16.57;;
14187;SDS011;7175;51.978;5.330;2022-08-24T16:42:22;17.97;;;16.47;;
14187;SDS011;7175;51.978;5.330;2022-08-24T16:44:52;18.07;;;16.57;;
14187;SDS011;7175;51.978;5.330;2022-08-24T16:47:21;18.60;;;17.00;;